Terminal Aerodrome Forecast
Issued by NWS Pittsburgh, PA

Current Version | Previous Version | Text Only | Print | Product List | Glossary Off
Versions: 1 2 3 4 5 6 7 8 9 10 11 12 13 14 15 16 17 18 19 20 21 22 23 24 25 26 27 28 29 30

000
FTUS41 KPBZ 041121
TAFPIT
TAF
KPIT 041121Z 0412/0518 VRB03KT P6SM BKN035
     FM041400 12004KT P6SM OVC090
     FM050300 14006KT P6SM -SHRA OVC035
     FM050500 17006KT 4SM -SHRA OVC015
     FM051000 27010KT P6SM VCSH SCT008 BKN012=

USA.gov is the U.S. government's official web portal to all federal, state and local government web resources and services.